Time;durP1;ratioP1;P1;durP2;ratioP2;P2;SDS_P1;SDS_P2;PMS_P1;PMS_P2;Temp;Humidity;BMP_temperature;BMP_pressure;BME280_temperature;BME280_humidity;BME280_pressure;Samples;Min_cycle;Max_cycle;Signal;HPM_P1;HPM_P2
2022/04/16 00:01:45;;;;;;;;;;;24.30;42.80;;;;;;1526798;77;741;-66
2022/04/16 00:03:45;;;;;;;;;;;24.20;42.60;;;;;;1512705;77;1540;-68
2022/04/16 00:05:48;;;;;;;;;;;24.30;42.80;;;;;;1525618;77;1068;-67
2022/04/16 00:08:06;;;;;;;;;;;24.20;42.60;;;;;;1512410;77;759;-67
2022/04/16 00:09:53;;;;;;;;;;;24.30;42.70;;;;;;1512832;77;1751;-66
2022/04/16 00:11:55;;;;;;;;;;;24.20;42.60;;;;;;1521299;77;685;-67
2022/04/16 00:13:57;;;;;;;;;;;24.20;42.60;;;;;;1527967;76;1157;-68
2022/04/16 00:15:59;;;;;;;;;;;24.30;42.80;;;;;;1501206;78;694;-68
2022/04/16 00:18:01;;;;;;;;;;;24.20;42.70;;;;;;1502548;78;755;-72
2022/04/16 00:20:06;;;;;;;;;;;24.10;42.70;;;;;;1535421;77;1950;-68
2022/04/16 00:22:10;;;;;;;;;;;24.10;42.80;;;;;;1545229;77;1620;-68
2022/04/16 00:24:10;;;;;;;;;;;24.20;42.70;;;;;;1524983;77;1953;-68
2022/04/16 00:26:14;;;;;;;;;;;24.20;42.80;;;;;;1497395;78;762;-66
2022/04/16 00:28:16;;;;;;;;;;;24.20;42.90;;;;;;1524771;76;786;-67
2022/04/16 00:30:18;;;;;;;;;;;24.20;42.80;;;;;;1522981;77;755;-67
2022/04/16 00:32:21;;;;;;;;;;;24.20;42.70;;;;;;1525453;77;799;-66
2022/04/16 00:34:23;;;;;;;;;;;24.20;42.70;;;;;;1530647;77;1187;-66
2022/04/16 00:36:25;;;;;;;;;;;24.20;42.70;;;;;;1521652;77;685;-67
2022/04/16 00:38:27;;;;;;;;;;;24.20;42.70;;;;;;1528036;76;726;-67
2022/04/16 00:40:29;;;;;;;;;;;24.20;42.80;;;;;;1529748;76;1940;-67
2022/04/16 00:42:43;;;;;;;;;;;24.30;42.90;;;;;;1525598;76;669;-67
2022/04/16 00:44:44;;;;;;;;;;;24.30;42.90;;;;;;1534830;75;2085;-72
2022/04/16 00:46:47;;;;;;;;;;;24.20;42.80;;;;;;1556272;75;719;-71
2022/04/16 00:48:49;;;;;;;;;;;24.20;42.80;;;;;;1552080;75;766;-72
2022/04/16 00:50:53;;;;;;;;;;;24.20;42.80;;;;;;1557645;75;678;-73
2022/04/16 00:52:55;;;;;;;;;;;24.30;42.70;;;;;;1563998;75;678;-70
2022/04/16 00:54:56;;;;;;;;;;;24.30;42.70;;;;;;1555894;75;1198;-69
2022/04/16 00:56:58;;;;;;;;;;;24.20;42.60;;;;;;1551568;75;713;-70
2022/04/16 00:59:01;;;;;;;;;;;24.20;42.60;;;;;;1549999;75;752;-70
2022/04/16 01:01:03;;;;;;;;;;;24.20;42.60;;;;;;1564402;75;1930;-71
2022/04/16 01:03:05;;;;;;;;;;;24.20;42.70;;;;;;1558130;75;641;-72
2022/04/16 01:05:07;;;;;;;;;;;24.20;42.60;;;;;;1560280;75;1162;-71
2022/04/16 01:07:10;;;;;;;;;;;24.20;42.70;;;;;;1554776;75;648;-71
2022/04/16 01:09:11;;;;;;;;;;;24.20;42.70;;;;;;1561119;75;662;-71
2022/04/16 01:11:14;;;;;;;;;;;24.10;42.70;;;;;;1561721;75;670;-71
2022/04/16 01:13:18;;;;;;;;;;;24.10;42.70;;;;;;1555333;75;699;-73
2022/04/16 01:15:20;;;;;;;;;;;24.10;42.80;;;;;;1555206;75;1146;-72
2022/04/16 01:17:22;;;;;;;;;;;24.20;42.80;;;;;;1544058;75;650;-73
2022/04/16 01:19:25;;;;;;;;;;;24.10;42.70;;;;;;1563074;75;718;-72
2022/04/16 01:21:26;;;;;;;;;;;24.20;42.70;;;;;;1550997;75;1914;-72
2022/04/16 01:23:30;;;;;;;;;;;24.10;42.70;;;;;;1555231;75;715;-73
2022/04/16 01:25:33;;;;;;;;;;;24.10;42.70;;;;;;1566994;75;1171;-73
2022/04/16 01:27:36;;;;;;;;;;;24.10;42.70;;;;;;1554512;75;673;-72
2022/04/16 01:29:37;;;;;;;;;;;24.20;42.80;;;;;;1551251;75;752;-73
2022/04/16 01:31:39;;;;;;;;;;;24.10;42.70;;;;;;1565187;75;678;-76
2022/04/16 01:33:41;;;;;;;;;;;24.10;42.80;;;;;;1556438;75;723;-71
2022/04/16 01:35:43;;;;;;;;;;;24.10;42.70;;;;;;1557323;75;1203;-72
2022/04/16 01:37:45;;;;;;;;;;;24.20;42.70;;;;;;1557062;75;682;-73
2022/04/16 01:39:47;;;;;;;;;;;24.10;42.70;;;;;;1564115;75;659;-73
2022/04/16 01:41:49;;;;;;;;;;;24.10;42.70;;;;;;1557915;75;1925;-75
2022/04/16 01:43:51;;;;;;;;;;;24.10;42.70;;;;;;1557722;75;677;-74
2022/04/16 01:45:55;;;;;;;;;;;24.10;42.70;;;;;;1563547;75;1130;-73
2022/04/16 01:47:59;;;;;;;;;;;24.10;42.70;;;;;;1560418;75;1716;-72
2022/04/16 01:50:01;;;;;;;;;;;24.20;42.80;;;;;;1555604;75;655;-73
2022/04/16 01:52:03;;;;;;;;;;;24.20;42.80;;;;;;1559692;75;670;-73
2022/04/16 01:54:04;;;;;;;;;;;24.20;42.80;;;;;;1559006;75;643;-73
2022/04/16 01:56:06;;;;;;;;;;;24.20;42.70;;;;;;1562059;75;1107;-73
2022/04/16 01:58:08;;;;;;;;;;;24.10;42.80;;;;;;1559490;75;655;-72
2022/04/16 02:00:12;;;;;;;;;;;24.20;42.80;;;;;;1565423;75;652;-73
2022/04/16 02:02:15;;;;;;;;;;;24.20;42.80;;;;;;1557066;75;1929;-74
2022/04/16 02:04:17;;;;;;;;;;;24.10;42.80;;;;;;1555280;75;667;-70
2022/04/16 02:06:19;;;;;;;;;;;24.10;42.80;;;;;;1556865;75;655;-71
2022/04/16 02:08:20;;;;;;;;;;;24.10;42.70;;;;;;1565915;75;649;-72
2022/04/16 02:10:22;;;;;;;;;;;24.10;42.80;;;;;;1559990;75;666;-72
2022/04/16 02:12:24;;;;;;;;;;;24.20;42.80;;;;;;1551252;75;673;-71
2022/04/16 02:14:26;;;;;;;;;;;24.10;42.80;;;;;;1562244;75;1128;-71
2022/04/16 02:16:28;;;;;;;;;;;24.10;42.70;;;;;;1553961;75;666;-71
2022/04/16 02:18:30;;;;;;;;;;;24.10;42.70;;;;;;1555580;75;695;-74
2022/04/16 02:20:32;;;;;;;;;;;24.20;42.80;;;;;;1561958;75;1942;-75
2022/04/16 02:22:43;;;;;;;;;;;24.10;42.80;;;;;;1563592;75;607;-73
2022/04/16 02:24:46;;;;;;;;;;;24.10;43.00;;;;;;1560522;75;1213;-73
2022/04/16 02:26:48;;;;;;;;;;;24.10;43.00;;;;;;1562683;75;668;-74
2022/04/16 02:28:50;;;;;;;;;;;24.20;43.00;;;;;;1563571;75;731;-71
2022/04/16 02:30:51;;;;;;;;;;;24.20;42.90;;;;;;1559011;75;709;-75
2022/04/16 02:32:53;;;;;;;;;;;24.20;42.80;;;;;;1552632;75;678;-73
2022/04/16 02:34:56;;;;;;;;;;;24.20;42.90;;;;;;1559331;74;1172;-75
2022/04/16 02:36:58;;;;;;;;;;;24.20;42.80;;;;;;1549015;75;644;-69
2022/04/16 02:39:00;;;;;;;;;;;24.30;42.80;;;;;;1560924;75;651;-72
2022/04/16 02:41:02;;;;;;;;;;;24.30;42.80;;;;;;1559057;75;1922;-71
2022/04/16 02:43:04;;;;;;;;;;;24.40;42.70;;;;;;1553713;75;640;-67
2022/04/16 02:47:26;;;;;;;;;;;24.40;42.70;;;;;;1560567;75;1650;-71
2022/04/16 02:49:28;;;;;;;;;;;24.40;42.80;;;;;;1565294;75;704;-72
2022/04/16 02:51:30;;;;;;;;;;;24.40;42.80;;;;;;1560998;75;653;-72
2022/04/16 02:53:32;;;;;;;;;;;24.50;42.80;;;;;;1560629;74;699;-75
2022/04/16 02:55:34;;;;;;;;;;;24.60;42.80;;;;;;1560607;75;1145;-72
2022/04/16 02:57:36;;;;;;;;;;;24.50;42.60;;;;;;1544059;75;659;-72
2022/04/16 02:59:37;;;;;;;;;;;24.50;42.60;;;;;;1551135;75;679;-72
2022/04/16 03:01:39;;;;;;;;;;;24.60;42.70;;;;;;1549909;75;1929;-77
2022/04/16 03:03:41;;;;;;;;;;;24.50;42.80;;;;;;1551074;75;675;-71
2022/04/16 03:05:43;;;;;;;;;;;24.40;42.90;;;;;;1563838;75;1130;-71
2022/04/16 03:07:45;;;;;;;;;;;24.50;43.10;;;;;;1543482;75;645;-73
2022/04/16 03:09:47;;;;;;;;;;;24.50;43.00;;;;;;1558426;75;678;-74
2022/04/16 03:11:49;;;;;;;;;;;24.50;43.00;;;;;;1551328;75;671;-72
2022/04/16 03:13:51;;;;;;;;;;;24.50;42.90;;;;;;1537989;75;716;-72
2022/04/16 03:18:13;;;;;;;;;;;24.50;42.70;;;;;;1535744;75;1646;-73
2022/04/16 03:20:15;;;;;;;;;;;24.50;42.80;;;;;;1525458;75;668;-70
2022/04/16 03:22:16;;;;;;;;;;;24.40;43.30;;;;;;1556565;75;1949;-71
2022/04/16 03:24:18;;;;;;;;;;;24.30;43.40;;;;;;1562984;75;1156;-71
2022/04/16 03:26:20;;;;;;;;;;;24.20;43.40;;;;;;1554217;75;687;-72
2022/04/16 03:28:22;;;;;;;;;;;24.20;43.60;;;;;;1558962;75;690;-75
2022/04/16 03:30:24;;;;;;;;;;;24.20;43.60;;;;;;1548637;75;669;-71
2022/04/16 03:32:26;;;;;;;;;;;24.20;43.70;;;;;;1535505;75;655;-71
2022/04/16 03:34:28;;;;;;;;;;;24.20;43.70;;;;;;1528216;75;1220;-70
2022/04/16 03:36:31;;;;;;;;;;;24.20;43.80;;;;;;1539496;75;675;-73
2022/04/16 03:38:32;;;;;;;;;;;24.20;44.10;;;;;;1556068;75;616;-71
2022/04/16 03:40:34;;;;;;;;;;;24.10;44.20;;;;;;1549137;75;702;-73
2022/04/16 03:42:38;;;;;;;;;;;24.10;44.10;;;;;;1550836;75;1932;-73
2022/04/16 03:44:40;;;;;;;;;;;24.10;44.20;;;;;;1542702;75;1152;-72
2022/04/16 03:46:42;;;;;;;;;;;24.00;44.00;;;;;;1534800;75;759;-72
2022/04/16 03:48:44;;;;;;;;;;;24.10;44.10;;;;;;1542425;75;706;-72
2022/04/16 03:50:46;;;;;;;;;;;24.20;43.90;;;;;;1549546;75;654;-70
2022/04/16 03:52:48;;;;;;;;;;;24.20;43.60;;;;;;1562043;75;658;-69
2022/04/16 04:01:48;;;;;;;;;;;24.30;43.30;;;;;;1548972;75;1901;-71
2022/04/16 04:03:50;;;;;;;;;;;24.40;43.30;;;;;;1560822;75;675;-71
2022/04/16 04:05:56;;;;;;;;;;;24.50;43.20;;;;;;1558874;75;1128;-71
2022/04/16 04:07:58;;;;;;;;;;;24.50;43.10;;;;;;1548191;75;720;-72
2022/04/16 04:10:00;;;;;;;;;;;24.60;42.90;;;;;;1552071;75;758;-73
2022/04/16 04:12:02;;;;;;;;;;;24.70;42.90;;;;;;1558967;75;593;-72
2022/04/16 04:14:04;;;;;;;;;;;24.60;42.70;;;;;;1544796;75;667;-73
2022/04/16 04:16:06;;;;;;;;;;;24.60;42.60;;;;;;1542844;75;1120;-69
2022/04/16 04:18:07;;;;;;;;;;;24.60;42.60;;;;;;1544445;75;685;-70
2022/04/16 04:20:10;;;;;;;;;;;24.60;42.60;;;;;;1559524;75;683;-72
2022/04/16 04:22:13;;;;;;;;;;;24.70;42.60;;;;;;1551180;75;1925;-73
2022/04/16 04:24:15;;;;;;;;;;;24.70;42.60;;;;;;1551183;75;689;-73
2022/04/16 04:26:17;;;;;;;;;;;24.70;42.50;;;;;;1554936;75;1163;-75
2022/04/16 04:28:19;;;;;;;;;;;24.80;42.40;;;;;;1541966;75;693;-75
2022/04/16 04:30:21;;;;;;;;;;;24.60;42.30;;;;;;1564989;75;667;-72
2022/04/16 04:32:23;;;;;;;;;;;24.60;42.40;;;;;;1563284;75;677;-72
2022/04/16 04:34:24;;;;;;;;;;;24.60;42.30;;;;;;1552746;75;1163;-73
2022/04/16 04:36:26;;;;;;;;;;;24.60;42.40;;;;;;1569691;75;636;-69
2022/04/16 04:38:28;;;;;;;;;;;24.60;42.40;;;;;;1564568;75;943;-71
2022/04/16 04:40:30;;;;;;;;;;;24.60;42.40;;;;;;1556901;75;630;-72
2022/04/16 04:42:33;;;;;;;;;;;24.50;42.50;;;;;;1562900;75;1946;-74
2022/04/16 04:44:35;;;;;;;;;;;24.50;42.50;;;;;;1563631;75;1113;-72
2022/04/16 04:46:36;;;;;;;;;;;24.60;42.50;;;;;;1560597;75;828;-72
2022/04/16 04:48:38;;;;;;;;;;;24.60;42.40;;;;;;1559386;75;807;-74
2022/04/16 04:50:40;;;;;;;;;;;24.60;42.30;;;;;;1556301;75;696;-70
2022/04/16 04:52:42;;;;;;;;;;;24.60;42.30;;;;;;1552102;75;673;-72
2022/04/16 04:54:44;;;;;;;;;;;24.60;42.20;;;;;;1559063;75;1189;-73
2022/04/16 04:56:46;;;;;;;;;;;24.70;42.30;;;;;;1559515;75;768;-72
2022/04/16 04:58:48;;;;;;;;;;;24.70;42.30;;;;;;1549026;75;641;-72
2022/04/16 05:00:50;;;;;;;;;;;24.70;42.30;;;;;;1555580;75;1005;-73
2022/04/16 05:02:52;;;;;;;;;;;24.70;42.30;;;;;;1558832;75;1946;-72
2022/04/16 05:04:53;;;;;;;;;;;24.60;42.10;;;;;;1558451;75;1183;-73
2022/04/16 05:06:56;;;;;;;;;;;24.60;42.10;;;;;;1541162;76;1003;-70
2022/04/16 05:08:58;;;;;;;;;;;24.70;42.10;;;;;;1550824;75;626;-72
2022/04/16 05:11:00;;;;;;;;;;;24.70;42.10;;;;;;1551853;75;635;-73
2022/04/16 05:13:02;;;;;;;;;;;24.70;42.00;;;;;;1550967;75;655;-71
2022/04/16 05:15:04;;;;;;;;;;;24.70;42.00;;;;;;1547314;75;1170;-73
2022/04/16 05:17:06;;;;;;;;;;;24.70;42.00;;;;;;1559008;75;649;-73
2022/04/16 05:19:08;;;;;;;;;;;24.70;42.10;;;;;;1556772;75;666;-73
2022/04/16 05:21:10;;;;;;;;;;;24.70;42.00;;;;;;1565622;75;673;-75
2022/04/16 05:23:12;;;;;;;;;;;24.70;41.90;;;;;;1554865;75;1935;-73
2022/04/16 05:25:14;;;;;;;;;;;24.70;41.80;;;;;;1555973;75;1175;-73
2022/04/16 05:27:16;;;;;;;;;;;24.70;41.80;;;;;;1560043;75;733;-74
2022/04/16 05:29:18;;;;;;;;;;;24.70;41.80;;;;;;1559054;75;636;-73
2022/04/16 05:31:24;;;;;;;;;;;24.70;41.80;;;;;;1559297;75;671;-73
2022/04/16 05:35:44;;;;;;;;;;;24.70;41.80;;;;;;1554415;75;1639;-73
2022/04/16 05:37:47;;;;;;;;;;;24.80;41.80;;;;;;1557680;75;644;-77
2022/04/16 05:39:49;;;;;;;;;;;24.60;41.70;;;;;;1558357;75;686;-72
2022/04/16 05:41:51;;;;;;;;;;;24.70;41.80;;;;;;1559400;75;1934;-74
2022/04/16 05:43:53;;;;;;;;;;;24.60;41.80;;;;;;1562396;75;719;-74
2022/04/16 05:45:55;;;;;;;;;;;24.70;41.80;;;;;;1553461;75;1170;-72
2022/04/16 05:47:57;;;;;;;;;;;24.60;41.80;;;;;;1559242;75;780;-74
2022/04/16 05:49:58;;;;;;;;;;;24.70;41.80;;;;;;1555248;75;666;-72
2022/04/16 05:52:01;;;;;;;;;;;24.60;41.60;;;;;;1562681;75;661;-72
2022/04/16 05:54:03;;;;;;;;;;;24.70;41.80;;;;;;1551714;75;786;-71
2022/04/16 05:56:05;;;;;;;;;;;24.70;41.70;;;;;;1562554;75;1134;-70
2022/04/16 05:58:07;;;;;;;;;;;24.70;41.90;;;;;;1560393;75;588;-72
2022/04/16 06:00:12;;;;;;;;;;;24.70;42.00;;;;;;1549635;75;674;-73
2022/04/16 06:02:12;;;;;;;;;;;24.60;41.80;;;;;;1558154;75;1928;-71
2022/04/16 06:04:14;;;;;;;;;;;24.70;41.90;;;;;;1557955;75;654;-71
2022/04/16 06:06:16;;;;;;;;;;;24.70;41.90;;;;;;1560848;75;1147;-73
2022/04/16 06:08:18;;;;;;;;;;;24.60;41.90;;;;;;1550986;75;667;-73
2022/04/16 06:10:20;;;;;;;;;;;24.60;42.00;;;;;;1554261;75;752;-69
2022/04/16 06:12:23;;;;;;;;;;;24.60;42.00;;;;;;1548837;75;761;-67
2022/04/16 06:14:25;;;;;;;;;;;24.50;42.00;;;;;;1549429;75;1150;-68
2022/04/16 06:16:26;;;;;;;;;;;24.50;42.10;;;;;;1556316;75;678;-63
2022/04/16 06:18:28;;;;;;;;;;;24.50;42.10;;;;;;1559354;75;730;-67
2022/04/16 06:20:30;;;;;;;;;;;24.40;42.00;;;;;;1556780;75;674;-68
2022/04/16 06:22:32;;;;;;;;;;;24.40;42.10;;;;;;1557655;75;1927;-66
2022/04/16 06:24:34;;;;;;;;;;;24.30;42.10;;;;;;1550144;75;1143;-67
2022/04/16 06:26:36;;;;;;;;;;;24.40;42.10;;;;;;1563446;75;676;-67
2022/04/16 06:28:38;;;;;;;;;;;24.30;42.30;;;;;;1552502;75;721;-66
2022/04/16 06:30:39;;;;;;;;;;;24.30;42.30;;;;;;1554540;75;788;-69
2022/04/16 06:32:41;;;;;;;;;;;24.30;42.30;;;;;;1553608;75;675;-65
2022/04/16 06:34:43;;;;;;;;;;;24.30;42.40;;;;;;1560228;75;1135;-66
2022/04/16 06:36:45;;;;;;;;;;;24.20;42.30;;;;;;1559621;75;664;-67
2022/04/16 06:38:47;;;;;;;;;;;24.30;42.50;;;;;;1550778;75;676;-66
2022/04/16 06:40:49;;;;;;;;;;;24.20;42.40;;;;;;1556263;75;652;-67
2022/04/16 06:42:52;;;;;;;;;;;24.20;42.50;;;;;;1556457;75;1935;-70
2022/04/16 06:44:54;;;;;;;;;;;24.20;42.50;;;;;;1558823;75;3117;-63
2022/04/16 06:46:56;;;;;;;;;;;24.20;42.50;;;;;;1531117;77;679;-68
2022/04/16 06:48:58;;;;;;;;;;;24.30;42.60;;;;;;1523572;77;756;-65
2022/04/16 06:51:00;;;;;;;;;;;24.30;42.60;;;;;;1532834;76;773;-66
2022/04/16 06:53:01;;;;;;;;;;;24.20;42.30;;;;;;1526892;77;707;-67
2022/04/16 06:55:04;;;;;;;;;;;24.30;42.50;;;;;;1532232;76;1240;-68
2022/04/16 06:57:06;;;;;;;;;;;24.20;42.30;;;;;;1526228;77;754;-66
2022/04/16 06:59:08;;;;;;;;;;;24.20;42.30;;;;;;1541196;76;657;-65
2022/04/16 07:01:10;;;;;;;;;;;24.30;42.30;;;;;;1526661;77;694;-66
2022/04/16 07:03:13;;;;;;;;;;;24.30;42.10;;;;;;1528612;77;1931;-68
2022/04/16 07:05:16;;;;;;;;;;;24.30;42.00;;;;;;1533995;76;1084;-65
2022/04/16 07:07:18;;;;;;;;;;;24.40;41.90;;;;;;1529188;77;773;-67
2022/04/16 07:09:19;;;;;;;;;;;24.40;41.90;;;;;;1529293;77;676;-66
2022/04/16 07:11:21;;;;;;;;;;;24.40;41.80;;;;;;1524889;77;671;-65
2022/04/16 07:13:23;;;;;;;;;;;24.40;41.70;;;;;;1530533;77;715;-66
2022/04/16 07:15:25;;;;;;;;;;;24.30;41.50;;;;;;1528127;77;1140;-67
2022/04/16 07:17:27;;;;;;;;;;;24.40;41.70;;;;;;1533067;77;734;-68
2022/04/16 07:19:29;;;;;;;;;;;24.30;41.70;;;;;;1522662;76;680;-66
2022/04/16 07:21:31;;;;;;;;;;;24.30;41.80;;;;;;1527748;77;683;-67
2022/04/16 07:23:33;;;;;;;;;;;24.30;41.80;;;;;;1538930;77;1937;-69
2022/04/16 07:25:35;;;;;;;;;;;24.30;41.80;;;;;;1529653;77;1190;-66
2022/04/16 07:27:37;;;;;;;;;;;24.30;41.80;;;;;;1529441;77;694;-64
2022/04/16 07:29:39;;;;;;;;;;;24.30;41.80;;;;;;1528366;77;710;-66
2022/04/16 07:31:41;;;;;;;;;;;24.30;41.90;;;;;;1531718;77;676;-66
2022/04/16 07:33:43;;;;;;;;;;;24.20;41.80;;;;;;1528567;77;758;-66
2022/04/16 07:35:44;;;;;;;;;;;24.20;41.80;;;;;;1528433;76;1095;-66
2022/04/16 07:37:46;;;;;;;;;;;24.30;41.90;;;;;;1530428;76;664;-68
2022/04/16 07:39:48;;;;;;;;;;;24.40;42.00;;;;;;1535544;77;599;-64
2022/04/16 07:41:51;;;;;;;;;;;24.30;42.00;;;;;;1535379;77;909;-64
2022/04/16 07:43:52;;;;;;;;;;;24.30;42.20;;;;;;1532696;77;1920;-65
2022/04/16 07:45:54;;;;;;;;;;;24.30;42.20;;;;;;1538417;77;1147;-73
2022/04/16 07:47:56;;;;;;;;;;;24.30;42.20;;;;;;1538105;77;707;-72
2022/04/16 07:49:58;;;;;;;;;;;24.30;40.50;;;;;;1536530;77;651;-71
2022/04/16 07:52:00;;;;;;;;;;;24.30;39.40;;;;;;1538180;77;672;-71
2022/04/16 07:54:02;;;;;;;;;;;24.30;38.60;;;;;;1535440;77;688;-72
2022/04/16 07:56:04;;;;;;;;;;;24.20;37.90;;;;;;1540089;77;1186;-73
2022/04/16 07:58:06;;;;;;;;;;;24.20;37.30;;;;;;1535886;76;712;-72
2022/04/16 08:00:08;;;;;;;;;;;24.10;37.00;;;;;;1539163;77;764;-67
2022/04/16 08:02:10;;;;;;;;;;;24.10;36.80;;;;;;1540572;77;708;-71
2022/04/16 08:04:12;;;;;;;;;;;24.00;36.50;;;;;;1538967;77;1921;-71
2022/04/16 08:06:13;;;;;;;;;;;24.00;36.30;;;;;;1538163;77;1086;-72
2022/04/16 08:08:15;;;;;;;;;;;23.90;36.40;;;;;;1538896;77;731;-69
2022/04/16 08:10:17;;;;;;;;;;;23.70;36.00;;;;;;1538497;77;757;-71
2022/04/16 08:12:19;;;;;;;;;;;23.70;35.50;;;;;;1538461;77;692;-72
2022/04/16 08:14:21;;;;;;;;;;;23.70;35.50;;;;;;1534962;77;711;-69
2022/04/16 08:16:23;;;;;;;;;;;23.60;34.80;;;;;;1539521;77;1126;-71
2022/04/16 08:18:25;;;;;;;;;;;23.60;35.00;;;;;;1536655;77;694;-70
2022/04/16 08:20:26;;;;;;;;;;;23.50;35.20;;;;;;1540041;77;645;-70
2022/04/16 08:22:32;;;;;;;;;;;23.50;35.10;;;;;;1539442;77;778;-70
2022/04/16 08:26:35;;;;;;;;;;;23.50;35.60;;;;;;1538380;77;1088;-72
2022/04/16 08:28:37;;;;;;;;;;;23.40;35.50;;;;;;1537261;77;772;-72
2022/04/16 08:30:39;;;;;;;;;;;23.40;35.10;;;;;;1536745;77;678;-70
2022/04/16 08:32:41;;;;;;;;;;;23.50;35.20;;;;;;1533521;77;708;-72
2022/04/16 08:34:43;;;;;;;;;;;23.40;34.90;;;;;;1542132;77;1158;-72
2022/04/16 08:36:45;;;;;;;;;;;23.40;34.70;;;;;;1531311;77;672;-71
2022/04/16 08:38:47;;;;;;;;;;;23.30;35.00;;;;;;1536922;77;741;-72
2022/04/16 08:40:50;;;;;;;;;;;23.30;34.80;;;;;;1538426;77;823;-70
2022/04/16 08:42:52;;;;;;;;;;;23.30;34.80;;;;;;1536192;77;1928;-70
2022/04/16 08:44:54;;;;;;;;;;;23.30;34.80;;;;;;1532065;77;1122;-74
2022/04/16 08:46:56;;;;;;;;;;;23.20;34.80;;;;;;1537041;77;799;-70
2022/04/16 08:48:58;;;;;;;;;;;23.30;35.10;;;;;;1537810;77;780;-73
2022/04/16 08:51:00;;;;;;;;;;;23.30;35.30;;;;;;1532697;77;712;-71
2022/04/16 08:53:02;;;;;;;;;;;23.30;35.50;;;;;;1536372;77;712;-71
2022/04/16 08:55:05;;;;;;;;;;;23.20;35.50;;;;;;1537369;77;1141;-69
2022/04/16 08:57:07;;;;;;;;;;;23.20;35.70;;;;;;1536999;76;747;-69
2022/04/16 08:59:09;;;;;;;;;;;23.20;35.50;;;;;;1536809;77;722;-70
2022/04/16 09:01:11;;;;;;;;;;;23.30;35.50;;;;;;1537369;77;681;-74
2022/04/16 09:03:13;;;;;;;;;;;23.30;35.20;;;;;;1537613;77;1951;-65
2022/04/16 09:05:15;;;;;;;;;;;23.20;35.10;;;;;;1537290;77;1117;-65
2022/04/16 09:07:17;;;;;;;;;;;23.10;35.70;;;;;;1508670;78;1193;-65
2022/04/16 09:09:19;;;;;;;;;;;23.10;36.00;;;;;;1537240;77;657;-63
2022/04/16 09:11:21;;;;;;;;;;;23.10;36.30;;;;;;1537397;77;791;-63
2022/04/16 09:13:23;;;;;;;;;;;23.00;36.40;;;;;;1537941;77;731;-64
2022/04/16 09:15:25;;;;;;;;;;;23.10;36.80;;;;;;1534193;77;1114;-65
2022/04/16 09:17:27;;;;;;;;;;;23.00;36.80;;;;;;1537611;77;691;-63
2022/04/16 09:19:29;;;;;;;;;;;23.10;37.10;;;;;;1535544;77;757;-67
2022/04/16 09:21:31;;;;;;;;;;;23.10;37.30;;;;;;1537446;77;716;-67
2022/04/16 09:23:33;;;;;;;;;;;23.10;37.30;;;;;;1533838;77;1939;-64
2022/04/16 09:25:35;;;;;;;;;;;23.10;37.50;;;;;;1536928;77;1146;-64
2022/04/16 09:27:41;;;;;;;;;;;23.20;37.60;;;;;;1537614;77;679;-64
2022/04/16 09:29:44;;;;;;;;;;;23.20;37.70;;;;;;1535688;77;1759;-65
2022/04/16 09:31:46;;;;;;;;;;;23.10;37.80;;;;;;1532708;77;804;-65
2022/04/16 09:33:48;;;;;;;;;;;23.10;37.90;;;;;;1536826;77;753;-65
2022/04/16 09:35:55;;;;;;;;;;;23.20;38.00;;;;;;1537174;77;1191;-64
2022/04/16 09:37:57;;;;;;;;;;;23.20;38.10;;;;;;1538180;77;691;-65
2022/04/16 09:40:01;;;;;;;;;;;23.10;38.10;;;;;;1537211;77;775;-63
2022/04/16 09:42:02;;;;;;;;;;;23.20;38.20;;;;;;1535556;77;1763;-64
2022/04/16 09:44:04;;;;;;;;;;;23.20;38.30;;;;;;1537035;77;1924;-65
2022/04/16 09:46:11;;;;;;;;;;;23.20;38.40;;;;;;1537164;77;1134;-64
2022/04/16 09:48:13;;;;;;;;;;;23.30;38.50;;;;;;1536919;77;1478;-64
2022/04/16 09:50:15;;;;;;;;;;;23.30;38.50;;;;;;1537312;77;688;-64
2022/04/16 09:52:17;;;;;;;;;;;23.30;38.60;;;;;;1537449;77;707;-65
2022/04/16 09:54:21;;;;;;;;;;;23.20;38.60;;;;;;1535196;76;711;-64
2022/04/16 09:56:22;;;;;;;;;;;23.20;38.60;;;;;;1536839;77;1558;-67
2022/04/16 09:58:26;;;;;;;;;;;23.30;38.70;;;;;;1534063;77;582;-66
2022/04/16 10:00:28;;;;;;;;;;;23.20;38.70;;;;;;1537270;77;745;-64
2022/04/16 10:02:31;;;;;;;;;;;23.30;38.80;;;;;;1532391;76;651;-65
2022/04/16 10:04:33;;;;;;;;;;;23.30;38.90;;;;;;1534108;77;1916;-64
2022/04/16 10:06:35;;;;;;;;;;;23.30;38.90;;;;;;1535151;76;1068;-68
2022/04/16 10:08:37;;;;;;;;;;;23.30;38.90;;;;;;1534856;76;679;-68
2022/04/16 10:10:46;;;;;;;;;;;23.30;38.90;;;;;;1534012;76;698;-61
2022/04/16 10:13:07;;;;;;;;;;;23.30;38.90;;;;;;1534191;76;1709;-62
2022/04/16 10:15:09;;;;;;;;;;;23.30;39.00;;;;;;1526337;77;2090;-60
2022/04/16 10:17:18;;;;;;;;;;;23.30;39.00;;;;;;1541827;77;721;-60
2022/04/16 10:19:20;;;;;;;;;;;23.30;39.10;;;;;;1530377;76;767;-63
2022/04/16 10:21:22;;;;;;;;;;;23.30;39.00;;;;;;1529502;77;746;-61
2022/04/16 10:23:40;;;;;;;;;;;23.40;39.10;;;;;;1533693;77;1925;-60
2022/04/16 10:25:42;;;;;;;;;;;23.40;39.00;;;;;;1531191;76;1174;-60
2022/04/16 10:27:44;;;;;;;;;;;23.40;38.90;;;;;;1533107;76;717;-61
2022/04/16 10:29:47;;;;;;;;;;;23.40;39.00;;;;;;1536720;76;798;-61
2022/04/16 10:31:55;;;;;;;;;;;23.40;39.00;;;;;;1534181;76;753;-60
2022/04/16 10:33:57;;;;;;;;;;;23.30;39.10;;;;;;1526280;76;1706;-61
2022/04/16 10:36:00;;;;;;;;;;;23.40;39.20;;;;;;1528750;76;1177;-60
2022/04/16 10:38:01;;;;;;;;;;;23.50;39.30;;;;;;1528312;76;709;-63
2022/04/16 10:40:04;;;;;;;;;;;23.40;39.30;;;;;;1534881;77;677;-60
2022/04/16 10:42:06;;;;;;;;;;;23.40;39.30;;;;;;1505232;78;1146;-65
2022/04/16 10:44:09;;;;;;;;;;;23.40;39.40;;;;;;1534702;76;1955;-60
2022/04/16 10:46:11;;;;;;;;;;;23.50;39.40;;;;;;1524887;76;1450;-60
2022/04/16 10:48:13;;;;;;;;;;;23.50;39.50;;;;;;1524274;77;766;-60
2022/04/16 10:50:15;;;;;;;;;;;23.40;39.40;;;;;;1507377;77;703;-64
2022/04/16 10:52:20;;;;;;;;;;;23.40;39.40;;;;;;1533624;76;702;-61
2022/04/16 10:54:30;;;;;;;;;;;23.40;39.50;;;;;;1528681;76;673;-60
2022/04/16 10:56:32;;;;;;;;;;;23.40;39.40;;;;;;1531950;76;1600;-63
2022/04/16 10:58:33;;;;;;;;;;;23.40;39.50;;;;;;1529849;77;780;-61
2022/04/16 11:00:36;;;;;;;;;;;23.40;39.50;;;;;;1531329;76;744;-62
2022/04/16 11:02:38;;;;;;;;;;;23.40;39.50;;;;;;1535975;76;1026;-61
2022/04/16 11:04:40;;;;;;;;;;;23.40;39.60;;;;;;1531985;77;1921;-59
2022/04/16 11:06:54;;;;;;;;;;;23.40;39.60;;;;;;1528887;77;753;-60
2022/04/16 11:08:50;;;;;;;;;;;23.40;39.60;;;;;;1537013;77;1485;-61
2022/04/16 11:10:54;;;;;;;;;;;23.40;39.60;;;;;;1536633;77;723;-63
2022/04/16 11:12:57;;;;;;;;;;;23.30;39.70;;;;;;1536667;77;1868;-62
2022/04/16 11:15:00;;;;;;;;;;;23.40;39.70;;;;;;1532038;77;1144;-60
2022/04/16 11:17:03;;;;;;;;;;;23.40;39.70;;;;;;1535423;77;698;-61
2022/04/16 11:19:06;;;;;;;;;;;23.40;39.80;;;;;;1529626;77;674;-60
2022/04/16 11:21:09;;;;;;;;;;;23.40;39.80;;;;;;1533211;77;1915;-60
2022/04/16 11:23:11;;;;;;;;;;;23.40;39.80;;;;;;1536064;77;750;-62
2022/04/16 11:25:13;;;;;;;;;;;23.40;39.90;;;;;;1536674;76;1933;-60
2022/04/16 11:34:20;;;;;;;;;;;23.30;40.00;;;;;;1531952;77;1665;-61
2022/04/16 11:36:24;;;;;;;;;;;23.40;40.00;;;;;;1533754;76;1198;-67
2022/04/16 11:38:32;;;;;;;;;;;23.40;40.00;;;;;;1528028;76;1669;-61
2022/04/16 11:40:34;;;;;;;;;;;23.50;40.10;;;;;;1534289;77;719;-61
2022/04/16 11:42:36;;;;;;;;;;;23.50;40.00;;;;;;1533474;76;671;-65
2022/04/16 11:44:41;;;;;;;;;;;23.50;40.00;;;;;;1535994;76;1941;-60
2022/04/16 11:46:43;;;;;;;;;;;23.50;40.00;;;;;;1533781;77;721;-61
2022/04/16 11:48:48;;;;;;;;;;;23.40;39.90;;;;;;1525458;77;710;-61
2022/04/16 11:50:50;;;;;;;;;;;23.50;40.00;;;;;;1532777;77;685;-61
2022/04/16 11:52:52;;;;;;;;;;;23.50;40.10;;;;;;1525987;76;632;-62
2022/04/16 11:55:01;;;;;;;;;;;23.50;40.00;;;;;;1530781;77;1211;-65
2022/04/16 11:57:03;;;;;;;;;;;23.50;40.00;;;;;;1530713;77;660;-61
2022/04/16 11:59:05;;;;;;;;;;;23.50;40.00;;;;;;1531712;77;656;-62
2022/04/16 12:01:08;;;;;;;;;;;23.50;40.00;;;;;;1526093;77;719;-62
2022/04/16 12:03:09;;;;;;;;;;;23.40;39.90;;;;;;1533479;77;676;-63
2022/04/16 12:05:15;;;;;;;;;;;23.50;40.00;;;;;;1532478;77;1950;-62
2022/04/16 12:07:17;;;;;;;;;;;23.50;40.00;;;;;;1533390;77;678;-61
2022/04/16 12:09:22;;;;;;;;;;;23.50;40.00;;;;;;1533381;76;666;-62
2022/04/16 12:11:23;;;;;;;;;;;23.40;39.80;;;;;;1526681;77;771;-63
2022/04/16 12:13:25;;;;;;;;;;;23.50;40.00;;;;;;1527880;77;720;-62
2022/04/16 12:15:28;;;;;;;;;;;23.50;39.90;;;;;;1505690;78;1265;-62
2022/04/16 12:17:30;;;;;;;;;;;23.50;40.00;;;;;;1531117;77;688;-61
2022/04/16 12:19:33;;;;;;;;;;;23.40;39.70;;;;;;1530276;77;668;-62
2022/04/16 12:21:37;;;;;;;;;;;23.50;39.90;;;;;;1535857;77;659;-64
2022/04/16 12:23:40;;;;;;;;;;;23.50;39.80;;;;;;1525192;77;2164;-61
2022/04/16 12:25:42;;;;;;;;;;;23.40;39.70;;;;;;1529720;76;1905;-61
2022/04/16 12:27:46;;;;;;;;;;;23.40;39.70;;;;;;1528215;77;741;-62
2022/04/16 12:29:48;;;;;;;;;;;23.40;39.70;;;;;;1525703;77;1404;-64
2022/04/16 12:31:52;;;;;;;;;;;23.50;39.90;;;;;;1534742;77;701;-62
2022/04/16 12:33:54;;;;;;;;;;;23.50;39.90;;;;;;1523748;77;2172;-61